sensor_id;sensor_type;location;lat;lon;timestamp;temperature;humidity
7254;DHT22;4060;49.186;9.226;2023-11-19T00:01:05;12.60;78.80
7254;DHT22;4060;49.186;9.226;2023-11-19T00:03:39;12.60;78.20
7254;DHT22;4060;49.186;9.226;2023-11-19T00:06:08;12.60;78.20
7254;DHT22;4060;49.186;9.226;2023-11-19T00:08:38;12.60;78.30
7254;DHT22;4060;49.186;9.226;2023-11-19T00:11:07;12.60;78.30
7254;DHT22;4060;49.186;9.226;2023-11-19T00:13:36;12.60;78.30
7254;DHT22;4060;49.186;9.226;2023-11-19T00:16:07;12.60;78.40
7254;DHT22;4060;49.186;9.226;2023-11-19T00:18:39;12.60;78.50
7254;DHT22;4060;49.186;9.226;2023-11-19T00:21:08;12.60;78.50
7254;DHT22;4060;49.186;9.226;2023-11-19T00:23:38;12.60;78.50
7254;DHT22;4060;49.186;9.226;2023-11-19T00:26:08;12.50;78.40
7254;DHT22;4060;49.186;9.226;2023-11-19T00:28:37;12.50;78.50
7254;DHT22;4060;49.186;9.226;2023-11-19T00:31:07;12.60;78.70
7254;DHT22;4060;49.186;9.226;2023-11-19T00:33:43;12.50;78.60
7254;DHT22;4060;49.186;9.226;2023-11-19T00:36:13;12.50;78.60
7254;DHT22;4060;49.186;9.226;2023-11-19T00:38:43;12.50;78.60
7254;DHT22;4060;49.186;9.226;2023-11-19T00:41:12;12.50;79.40
7254;DHT22;4060;49.186;9.226;2023-11-19T00:43:43;12.50;78.70
7254;DHT22;4060;49.186;9.226;2023-11-19T00:46:13;12.50;78.70
7254;DHT22;4060;49.186;9.226;2023-11-19T00:48:44;12.50;78.80
7254;DHT22;4060;49.186;9.226;2023-11-19T00:51:14;12.50;78.80
7254;DHT22;4060;49.186;9.226;2023-11-19T00:53:44;12.50;78.90
7254;DHT22;4060;49.186;9.226;2023-11-19T00:56:13;12.50;78.90
7254;DHT22;4060;49.186;9.226;2023-11-19T00:58:44;12.50;78.90
7254;DHT22;4060;49.186;9.226;2023-11-19T01:01:15;12.50;79.00
7254;DHT22;4060;49.186;9.226;2023-11-19T01:03:46;12.50;78.90
7254;DHT22;4060;49.186;9.226;2023-11-19T01:06:27;12.50;79.00
7254;DHT22;4060;49.186;9.226;2023-11-19T01:08:56;12.50;79.00
7254;DHT22;4060;49.186;9.226;2023-11-19T01:11:26;12.50;79.10
7254;DHT22;4060;49.186;9.226;2023-11-19T01:13:55;12.50;79.10
7254;DHT22;4060;49.186;9.226;2023-11-19T01:16:25;12.50;79.10
7254;DHT22;4060;49.186;9.226;2023-11-19T01:18:57;12.50;79.30
7254;DHT22;4060;49.186;9.226;2023-11-19T01:21:27;12.50;79.30
7254;DHT22;4060;49.186;9.226;2023-11-19T01:23:57;12.50;79.30
7254;DHT22;4060;49.186;9.226;2023-11-19T01:26:27;12.40;79.20
7254;DHT22;4060;49.186;9.226;2023-11-19T01:28:57;12.40;79.20
7254;DHT22;4060;49.186;9.226;2023-11-19T01:31:27;12.40;79.30
7254;DHT22;4060;49.186;9.226;2023-11-19T01:33:58;12.40;79.30
7254;DHT22;4060;49.186;9.226;2023-11-19T01:36:28;12.40;79.30
7254;DHT22;4060;49.186;9.226;2023-11-19T01:38:57;12.40;79.40
7254;DHT22;4060;49.186;9.226;2023-11-19T01:41:26;12.40;79.40
7254;DHT22;4060;49.186;9.226;2023-11-19T01:43:56;12.40;79.50
7254;DHT22;4060;49.186;9.226;2023-11-19T01:46:26;12.40;79.40
7254;DHT22;4060;49.186;9.226;2023-11-19T01:48:57;12.40;79.50
7254;DHT22;4060;49.186;9.226;2023-11-19T01:51:26;12.40;79.50
7254;DHT22;4060;49.186;9.226;2023-11-19T01:53:56;12.40;79.50
7254;DHT22;4060;49.186;9.226;2023-11-19T01:56:26;12.40;79.60
7254;DHT22;4060;49.186;9.226;2023-11-19T01:58:58;12.40;79.60
7254;DHT22;4060;49.186;9.226;2023-11-19T02:01:28;12.40;79.70
7254;DHT22;4060;49.186;9.226;2023-11-19T02:04:02;12.40;79.70
7254;DHT22;4060;49.186;9.226;2023-11-19T02:06:33;12.40;79.70
7254;DHT22;4060;49.186;9.226;2023-11-19T02:09:03;12.40;80.50
7254;DHT22;4060;49.186;9.226;2023-11-19T02:11:35;12.40;79.80
7254;DHT22;4060;49.186;9.226;2023-11-19T02:14:05;12.40;79.70
7254;DHT22;4060;49.186;9.226;2023-11-19T02:16:35;12.40;79.80
7254;DHT22;4060;49.186;9.226;2023-11-19T02:19:06;12.40;79.80
7254;DHT22;4060;49.186;9.226;2023-11-19T02:21:37;12.30;79.80
7254;DHT22;4060;49.186;9.226;2023-11-19T02:24:09;12.30;79.80
7254;DHT22;4060;49.186;9.226;2023-11-19T02:26:42;12.40;79.90
7254;DHT22;4060;49.186;9.226;2023-11-19T02:29:17;12.40;79.90
7254;DHT22;4060;49.186;9.226;2023-11-19T02:31:46;12.40;80.00
7254;DHT22;4060;49.186;9.226;2023-11-19T02:34:16;12.40;80.00
7254;DHT22;4060;49.186;9.226;2023-11-19T02:36:45;12.30;79.90
7254;DHT22;4060;49.186;9.226;2023-11-19T02:39:15;12.30;79.90
7254;DHT22;4060;49.186;9.226;2023-11-19T02:41:48;12.30;80.00
7254;DHT22;4060;49.186;9.226;2023-11-19T02:44:22;12.30;80.00
7254;DHT22;4060;49.186;9.226;2023-11-19T02:46:51;12.30;80.00
7254;DHT22;4060;49.186;9.226;2023-11-19T02:49:21;12.30;80.00
7254;DHT22;4060;49.186;9.226;2023-11-19T02:51:51;12.30;80.10
7254;DHT22;4060;49.186;9.226;2023-11-19T02:54:20;12.30;80.10
7254;DHT22;4060;49.186;9.226;2023-11-19T02:56:54;12.30;80.20
7254;DHT22;4060;49.186;9.226;2023-11-19T02:59:28;12.30;80.20
7254;DHT22;4060;49.186;9.226;2023-11-19T03:02:06;12.30;80.20
7254;DHT22;4060;49.186;9.226;2023-11-19T03:04:38;12.30;80.30
7254;DHT22;4060;49.186;9.226;2023-11-19T03:07:09;12.30;80.30
7254;DHT22;4060;49.186;9.226;2023-11-19T03:09:39;12.30;80.30
7254;DHT22;4060;49.186;9.226;2023-11-19T03:12:11;12.30;80.30
7254;DHT22;4060;49.186;9.226;2023-11-19T03:14:42;12.30;80.40
7254;DHT22;4060;49.186;9.226;2023-11-19T03:17:12;12.30;80.30
7254;DHT22;4060;49.186;9.226;2023-11-19T03:19:41;12.30;80.40
7254;DHT22;4060;49.186;9.226;2023-11-19T03:22:11;12.30;80.40
7254;DHT22;4060;49.186;9.226;2023-11-19T03:24:41;12.30;80.40
7254;DHT22;4060;49.186;9.226;2023-11-19T03:27:11;12.30;80.40
7254;DHT22;4060;49.186;9.226;2023-11-19T03:29:42;12.20;80.30
7254;DHT22;4060;49.186;9.226;2023-11-19T03:32:11;12.30;80.50
7254;DHT22;4060;49.186;9.226;2023-11-19T03:34:42;12.30;80.40
7254;DHT22;4060;49.186;9.226;2023-11-19T03:37:12;12.30;80.50
7254;DHT22;4060;49.186;9.226;2023-11-19T03:39:44;12.30;80.50
7254;DHT22;4060;49.186;9.226;2023-11-19T03:42:13;12.30;80.60
7254;DHT22;4060;49.186;9.226;2023-11-19T03:44:44;12.30;80.50
7254;DHT22;4060;49.186;9.226;2023-11-19T03:47:15;12.30;80.60
7254;DHT22;4060;49.186;9.226;2023-11-19T03:49:48;12.20;80.40
7254;DHT22;4060;49.186;9.226;2023-11-19T03:52:18;12.20;80.50
7254;DHT22;4060;49.186;9.226;2023-11-19T03:54:50;12.30;80.70
7254;DHT22;4060;49.186;9.226;2023-11-19T03:57:20;12.30;80.70
7254;DHT22;4060;49.186;9.226;2023-11-19T03:59:51;12.30;80.80
7254;DHT22;4060;49.186;9.226;2023-11-19T04:02:22;12.30;80.80
7254;DHT22;4060;49.186;9.226;2023-11-19T04:04:55;12.30;80.80
7254;DHT22;4060;49.186;9.226;2023-11-19T04:07:24;12.30;80.80
7254;DHT22;4060;49.186;9.226;2023-11-19T04:09:54;12.20;80.70
7254;DHT22;4060;49.186;9.226;2023-11-19T04:12:23;12.30;80.90
7254;DHT22;4060;49.186;9.226;2023-11-19T04:14:55;12.30;80.80
7254;DHT22;4060;49.186;9.226;2023-11-19T04:17:24;12.30;80.90
7254;DHT22;4060;49.186;9.226;2023-11-19T04:19:53;12.30;80.90
7254;DHT22;4060;49.186;9.226;2023-11-19T04:22:23;12.30;80.90
7254;DHT22;4060;49.186;9.226;2023-11-19T04:24:53;12.30;81.00
7254;DHT22;4060;49.186;9.226;2023-11-19T04:27:22;12.30;81.00
7254;DHT22;4060;49.186;9.226;2023-11-19T04:29:54;12.30;81.00
7254;DHT22;4060;49.186;9.226;2023-11-19T04:32:23;12.20;80.90
7254;DHT22;4060;49.186;9.226;2023-11-19T04:34:53;12.30;81.00
7254;DHT22;4060;49.186;9.226;2023-11-19T04:37:23;12.30;81.10
7254;DHT22;4060;49.186;9.226;2023-11-19T04:39:52;12.30;81.10
7254;DHT22;4060;49.186;9.226;2023-11-19T04:42:23;12.30;81.10
7254;DHT22;4060;49.186;9.226;2023-11-19T04:44:55;12.30;81.20
7254;DHT22;4060;49.186;9.226;2023-11-19T04:47:24;12.30;81.10
7254;DHT22;4060;49.186;9.226;2023-11-19T04:49:54;12.30;81.10
7254;DHT22;4060;49.186;9.226;2023-11-19T04:52:23;12.30;81.20
7254;DHT22;4060;49.186;9.226;2023-11-19T04:54:53;12.30;81.20
7254;DHT22;4060;49.186;9.226;2023-11-19T04:57:22;12.30;81.20
7254;DHT22;4060;49.186;9.226;2023-11-19T04:59:52;12.30;81.20
7254;DHT22;4060;49.186;9.226;2023-11-19T05:02:23;12.30;81.30
7254;DHT22;4060;49.186;9.226;2023-11-19T05:04:52;12.30;81.40
7254;DHT22;4060;49.186;9.226;2023-11-19T05:07:22;12.30;81.40
7254;DHT22;4060;49.186;9.226;2023-11-19T05:09:52;12.30;81.50
7254;DHT22;4060;49.186;9.226;2023-11-19T05:12:21;12.30;81.50
7254;DHT22;4060;49.186;9.226;2023-11-19T05:14:52;12.30;81.60
7254;DHT22;4060;49.186;9.226;2023-11-19T05:17:25;12.30;81.60
7254;DHT22;4060;49.186;9.226;2023-11-19T05:19:55;12.30;81.80
7254;DHT22;4060;49.186;9.226;2023-11-19T05:22:24;12.30;81.90
7254;DHT22;4060;49.186;9.226;2023-11-19T05:24:56;12.30;82.00
7254;DHT22;4060;49.186;9.226;2023-11-19T05:27:26;12.30;82.00
7254;DHT22;4060;49.186;9.226;2023-11-19T05:29:56;12.30;82.10
7254;DHT22;4060;49.186;9.226;2023-11-19T05:32:27;12.30;82.00
7254;DHT22;4060;49.186;9.226;2023-11-19T05:34:56;12.30;82.00
7254;DHT22;4060;49.186;9.226;2023-11-19T05:37:25;12.30;82.80
7254;DHT22;4060;49.186;9.226;2023-11-19T05:39:55;12.30;82.10
7254;DHT22;4060;49.186;9.226;2023-11-19T05:42:26;12.30;82.10
7254;DHT22;4060;49.186;9.226;2023-11-19T05:44:55;12.30;82.30
7254;DHT22;4060;49.186;9.226;2023-11-19T05:47:27;12.30;82.40
7254;DHT22;4060;49.186;9.226;2023-11-19T05:49:56;12.30;82.40
7254;DHT22;4060;49.186;9.226;2023-11-19T05:52:26;12.30;82.40
7254;DHT22;4060;49.186;9.226;2023-11-19T05:54:55;12.40;83.50
7254;DHT22;4060;49.186;9.226;2023-11-19T05:57:25;12.40;83.20
7254;DHT22;4060;49.186;9.226;2023-11-19T05:59:56;12.40;83.50
7254;DHT22;4060;49.186;9.226;2023-11-19T06:02:28;12.40;83.70
7254;DHT22;4060;49.186;9.226;2023-11-19T06:04:57;12.40;83.80
7254;DHT22;4060;49.186;9.226;2023-11-19T06:07:27;12.40;83.90
7254;DHT22;4060;49.186;9.226;2023-11-19T06:09:57;12.50;84.10
7254;DHT22;4060;49.186;9.226;2023-11-19T06:12:26;12.50;84.30
7254;DHT22;4060;49.186;9.226;2023-11-19T06:14:56;12.50;84.30
7254;DHT22;4060;49.186;9.226;2023-11-19T06:17:27;12.50;84.40
7254;DHT22;4060;49.186;9.226;2023-11-19T06:19:57;12.50;84.50
7254;DHT22;4060;49.186;9.226;2023-11-19T06:22:27;12.50;84.50
7254;DHT22;4060;49.186;9.226;2023-11-19T06:24:56;12.50;84.60
7254;DHT22;4060;49.186;9.226;2023-11-19T06:27:27;12.60;84.70
7254;DHT22;4060;49.186;9.226;2023-11-19T06:29:56;12.60;84.60
7254;DHT22;4060;49.186;9.226;2023-11-19T06:32:27;12.60;84.50
7254;DHT22;4060;49.186;9.226;2023-11-19T06:34:57;12.60;84.40
7254;DHT22;4060;49.186;9.226;2023-11-19T06:37:26;12.60;84.40
7254;DHT22;4060;49.186;9.226;2023-11-19T06:39:56;12.60;84.40
7254;DHT22;4060;49.186;9.226;2023-11-19T06:42:26;12.60;84.40
7254;DHT22;4060;49.186;9.226;2023-11-19T06:44:57;12.60;84.40
7254;DHT22;4060;49.186;9.226;2023-11-19T06:47:28;12.70;84.50
7254;DHT22;4060;49.186;9.226;2023-11-19T06:49:58;12.70;84.50
7254;DHT22;4060;49.186;9.226;2023-11-19T06:52:27;12.70;84.60
7254;DHT22;4060;49.186;9.226;2023-11-19T06:54:57;12.70;84.60
7254;DHT22;4060;49.186;9.226;2023-11-19T06:57:27;12.70;84.70
7254;DHT22;4060;49.186;9.226;2023-11-19T06:59:59;12.70;84.70
7254;DHT22;4060;49.186;9.226;2023-11-19T07:02:31;12.70;84.70
7254;DHT22;4060;49.186;9.226;2023-11-19T07:05:00;12.70;84.90
7254;DHT22;4060;49.186;9.226;2023-11-19T07:07:31;12.80;85.10
7254;DHT22;4060;49.186;9.226;2023-11-19T07:10:03;12.80;85.20
7254;DHT22;4060;49.186;9.226;2023-11-19T07:12:34;12.80;85.30
7254;DHT22;4060;49.186;9.226;2023-11-19T07:15:03;12.80;85.40
7254;DHT22;4060;49.186;9.226;2023-11-19T07:17:34;12.80;85.40
7254;DHT22;4060;49.186;9.226;2023-11-19T07:20:05;12.80;85.30
7254;DHT22;4060;49.186;9.226;2023-11-19T07:22:35;12.80;85.10
7254;DHT22;4060;49.186;9.226;2023-11-19T07:25:05;12.90;85.20
7254;DHT22;4060;49.186;9.226;2023-11-19T07:27:35;12.90;85.20
7254;DHT22;4060;49.186;9.226;2023-11-19T07:30:06;12.90;85.10
7254;DHT22;4060;49.186;9.226;2023-11-19T07:32:48;12.90;85.10
7254;DHT22;4060;49.186;9.226;2023-11-19T07:35:18;12.90;85.10
7254;DHT22;4060;49.186;9.226;2023-11-19T07:37:47;12.90;85.10
7254;DHT22;4060;49.186;9.226;2023-11-19T07:40:17;12.90;85.10
7254;DHT22;4060;49.186;9.226;2023-11-19T07:42:47;12.90;85.10
7254;DHT22;4060;49.186;9.226;2023-11-19T07:45:16;12.90;85.10
7254;DHT22;4060;49.186;9.226;2023-11-19T07:47:47;12.90;85.20
7254;DHT22;4060;49.186;9.226;2023-11-19T07:50:18;12.90;85.30
7254;DHT22;4060;49.186;9.226;2023-11-19T07:52:47;13.00;85.40
7254;DHT22;4060;49.186;9.226;2023-11-19T07:55:16;13.00;85.40
7254;DHT22;4060;49.186;9.226;2023-11-19T07:57:46;13.00;85.30
7254;DHT22;4060;49.186;9.226;2023-11-19T08:00:16;13.00;85.50
7254;DHT22;4060;49.186;9.226;2023-11-19T08:02:48;13.00;85.50
7254;DHT22;4060;49.186;9.226;2023-11-19T08:05:17;13.00;85.40
7254;DHT22;4060;49.186;9.226;2023-11-19T08:07:47;13.00;85.50
7254;DHT22;4060;49.186;9.226;2023-11-19T08:10:16;13.00;85.70
7254;DHT22;4060;49.186;9.226;2023-11-19T08:12:46;13.10;85.80
7254;DHT22;4060;49.186;9.226;2023-11-19T08:15:15;13.10;85.80
7254;DHT22;4060;49.186;9.226;2023-11-19T08:17:47;13.10;85.70
7254;DHT22;4060;49.186;9.226;2023-11-19T08:20:17;13.10;85.80
7254;DHT22;4060;49.186;9.226;2023-11-19T08:22:46;13.10;85.70
7254;DHT22;4060;49.186;9.226;2023-11-19T08:25:16;13.10;85.60
7254;DHT22;4060;49.186;9.226;2023-11-19T08:27:46;13.10;85.60
7254;DHT22;4060;49.186;9.226;2023-11-19T08:30:15;13.20;85.60
7254;DHT22;4060;49.186;9.226;2023-11-19T08:32:45;13.20;85.70
7254;DHT22;4060;49.186;9.226;2023-11-19T08:35:18;13.20;85.70
7254;DHT22;4060;49.186;9.226;2023-11-19T08:37:48;13.20;85.50
7254;DHT22;4060;49.186;9.226;2023-11-19T08:40:17;13.20;85.60
7254;DHT22;4060;49.186;9.226;2023-11-19T08:42:47;13.20;85.80
7254;DHT22;4060;49.186;9.226;2023-11-19T08:45:16;13.20;86.00
7254;DHT22;4060;49.186;9.226;2023-11-19T08:47:46;13.20;86.00
7254;DHT22;4060;49.186;9.226;2023-11-19T08:50:17;13.20;86.00
7254;DHT22;4060;49.186;9.226;2023-11-19T08:52:47;13.30;86.20
7254;DHT22;4060;49.186;9.226;2023-11-19T08:55:17;13.30;86.40
7254;DHT22;4060;49.186;9.226;2023-11-19T08:57:46;13.30;86.30
7254;DHT22;4060;49.186;9.226;2023-11-19T09:00:16;13.30;86.20
7254;DHT22;4060;49.186;9.226;2023-11-19T09:02:46;13.30;86.40
7254;DHT22;4060;49.186;9.226;2023-11-19T09:05:17;13.40;86.60
7254;DHT22;4060;49.186;9.226;2023-11-19T09:07:46;13.40;86.70
7254;DHT22;4060;49.186;9.226;2023-11-19T09:10:17;13.40;87.40
7254;DHT22;4060;49.186;9.226;2023-11-19T09:12:47;13.40;86.90
7254;DHT22;4060;49.186;9.226;2023-11-19T09:15:17;13.50;87.40
7254;DHT22;4060;49.186;9.226;2023-11-19T09:17:46;13.50;87.40
7254;DHT22;4060;49.186;9.226;2023-11-19T09:20:18;13.50;87.40
7254;DHT22;4060;49.186;9.226;2023-11-19T09:22:47;13.60;87.60
7254;DHT22;4060;49.186;9.226;2023-11-19T09:25:17;13.60;87.60
7254;DHT22;4060;49.186;9.226;2023-11-19T09:27:47;13.60;87.80
7254;DHT22;4060;49.186;9.226;2023-11-19T09:30:17;13.60;87.80
7254;DHT22;4060;49.186;9.226;2023-11-19T09:32:47;13.70;88.00
7254;DHT22;4060;49.186;9.226;2023-11-19T09:35:18;13.70;88.00
7254;DHT22;4060;49.186;9.226;2023-11-19T09:37:48;13.70;88.00
7254;DHT22;4060;49.186;9.226;2023-11-19T09:40:17;13.80;88.10
7254;DHT22;4060;49.186;9.226;2023-11-19T09:42:48;13.80;88.10
7254;DHT22;4060;49.186;9.226;2023-11-19T09:45:17;13.80;88.10
7254;DHT22;4060;49.186;9.226;2023-11-19T09:47:52;13.90;88.20
7254;DHT22;4060;49.186;9.226;2023-11-19T09:50:24;13.90;88.10
7254;DHT22;4060;49.186;9.226;2023-11-19T09:52:53;13.90;88.10
7254;DHT22;4060;49.186;9.226;2023-11-19T09:55:22;14.00;88.10
7254;DHT22;4060;49.186;9.226;2023-11-19T09:57:53;14.00;88.00
7254;DHT22;4060;49.186;9.226;2023-11-19T10:00:23;14.00;87.90
7254;DHT22;4060;49.186;9.226;2023-11-19T10:02:52;14.10;88.10
7254;DHT22;4060;49.186;9.226;2023-11-19T10:05:26;14.10;87.90
7254;DHT22;4060;49.186;9.226;2023-11-19T10:07:55;14.10;87.90
7254;DHT22;4060;49.186;9.226;2023-11-19T10:10:25;14.10;88.50
7254;DHT22;4060;49.186;9.226;2023-11-19T10:12:55;14.10;87.80
7254;DHT22;4060;49.186;9.226;2023-11-19T10:15:25;14.20;87.70
7254;DHT22;4060;49.186;9.226;2023-11-19T10:17:57;14.20;87.60
7254;DHT22;4060;49.186;9.226;2023-11-19T10:20:29;14.20;87.60
7254;DHT22;4060;49.186;9.226;2023-11-19T10:22:58;14.20;87.50
7254;DHT22;4060;49.186;9.226;2023-11-19T10:25:29;14.30;87.50
7254;DHT22;4060;49.186;9.226;2023-11-19T10:27:59;14.30;87.50
7254;DHT22;4060;49.186;9.226;2023-11-19T10:30:29;14.30;87.40
7254;DHT22;4060;49.186;9.226;2023-11-19T10:33:05;14.30;87.20
7254;DHT22;4060;49.186;9.226;2023-11-19T10:35:51;14.40;87.30
7254;DHT22;4060;49.186;9.226;2023-11-19T10:38:21;14.40;87.20
7254;DHT22;4060;49.186;9.226;2023-11-19T10:40:52;14.40;87.20
7254;DHT22;4060;49.186;9.226;2023-11-19T10:43:22;14.40;87.20
7254;DHT22;4060;49.186;9.226;2023-11-19T10:45:53;14.40;87.10
7254;DHT22;4060;49.186;9.226;2023-11-19T10:48:22;14.40;87.10
7254;DHT22;4060;49.186;9.226;2023-11-19T10:50:56;14.50;87.20
7254;DHT22;4060;49.186;9.226;2023-11-19T10:53:25;14.50;87.10
7254;DHT22;4060;49.186;9.226;2023-11-19T10:55:59;14.50;87.00
7254;DHT22;4060;49.186;9.226;2023-11-19T10:58:33;14.60;87.10
7254;DHT22;4060;49.186;9.226;2023-11-19T11:01:13;14.50;87.00
7254;DHT22;4060;49.186;9.226;2023-11-19T11:03:47;14.60;86.90
7254;DHT22;4060;49.186;9.226;2023-11-19T11:06:20;14.60;86.70
7254;DHT22;4060;49.186;9.226;2023-11-19T11:08:52;14.60;86.60
7254;DHT22;4060;49.186;9.226;2023-11-19T11:11:22;14.60;86.50
7254;DHT22;4060;49.186;9.226;2023-11-19T11:13:54;14.70;86.50
7254;DHT22;4060;49.186;9.226;2023-11-19T11:16:24;14.70;86.30
7254;DHT22;4060;49.186;9.226;2023-11-19T11:18:55;14.70;86.10
7254;DHT22;4060;49.186;9.226;2023-11-19T11:21:27;14.70;86.00
7254;DHT22;4060;49.186;9.226;2023-11-19T11:27:32;14.80;85.90
7254;DHT22;4060;49.186;9.226;2023-11-19T11:30:16;14.80;85.80
7254;DHT22;4060;49.186;9.226;2023-11-19T11:32:57;14.90;85.70
7254;DHT22;4060;49.186;9.226;2023-11-19T11:35:34;14.90;85.60
7254;DHT22;4060;49.186;9.226;2023-11-19T11:38:12;14.90;85.40
7254;DHT22;4060;49.186;9.226;2023-11-19T11:40:43;14.90;85.10
7254;DHT22;4060;49.186;9.226;2023-11-19T11:43:45;14.90;85.00
7254;DHT22;4060;49.186;9.226;2023-11-19T11:49:32;15.00;84.80
7254;DHT22;4060;49.186;9.226;2023-11-19T11:52:03;15.00;84.60
7254;DHT22;4060;49.186;9.226;2023-11-19T11:54:34;15.00;84.40
7254;DHT22;4060;49.186;9.226;2023-11-19T11:57:13;15.00;84.40
7254;DHT22;4060;49.186;9.226;2023-11-19T11:59:47;15.10;84.30
7254;DHT22;4060;49.186;9.226;2023-11-19T12:02:19;15.10;84.10
7254;DHT22;4060;49.186;9.226;2023-11-19T12:04:49;15.10;83.80
7254;DHT22;4060;49.186;9.226;2023-11-19T12:07:20;15.20;83.90
7254;DHT22;4060;49.186;9.226;2023-11-19T12:09:53;15.20;83.70
7254;DHT22;4060;49.186;9.226;2023-11-19T12:12:26;15.20;83.60
7254;DHT22;4060;49.186;9.226;2023-11-19T12:15:04;15.20;83.40
7254;DHT22;4060;49.186;9.226;2023-11-19T12:17:49;15.20;83.40
7254;DHT22;4060;49.186;9.226;2023-11-19T12:20:19;15.20;82.70
7254;DHT22;4060;49.186;9.226;2023-11-19T12:22:50;15.30;83.30
7254;DHT22;4060;49.186;9.226;2023-11-19T12:25:25;15.30;83.20
7254;DHT22;4060;49.186;9.226;2023-11-19T12:27:54;15.30;83.10
7254;DHT22;4060;49.186;9.226;2023-11-19T12:30:24;15.30;83.00
7254;DHT22;4060;49.186;9.226;2023-11-19T12:32:54;15.30;82.90
7254;DHT22;4060;49.186;9.226;2023-11-19T12:35:24;15.40;82.80
7254;DHT22;4060;49.186;9.226;2023-11-19T12:37:53;15.50;82.30
7254;DHT22;4060;49.186;9.226;2023-11-19T12:40:26;15.60;82.00
7254;DHT22;4060;49.186;9.226;2023-11-19T12:42:56;15.60;81.60
7254;DHT22;4060;49.186;9.226;2023-11-19T12:45:35;15.70;81.50
7254;DHT22;4060;49.186;9.226;2023-11-19T12:48:16;15.70;81.30
7254;DHT22;4060;49.186;9.226;2023-11-19T12:50:53;15.70;81.20
7254;DHT22;4060;49.186;9.226;2023-11-19T12:53:23;15.80;81.20
7254;DHT22;4060;49.186;9.226;2023-11-19T12:55:55;15.80;81.00
7254;DHT22;4060;49.186;9.226;2023-11-19T12:58:31;15.80;80.60
7254;DHT22;4060;49.186;9.226;2023-11-19T13:01:02;15.80;80.30
7254;DHT22;4060;49.186;9.226;2023-11-19T13:03:33;15.90;80.00
7254;DHT22;4060;49.186;9.226;2023-11-19T13:06:03;15.90;79.60
7254;DHT22;4060;49.186;9.226;2023-11-19T13:08:39;15.90;79.30
7254;DHT22;4060;49.186;9.226;2023-11-19T13:11:10;16.00;79.20
7254;DHT22;4060;49.186;9.226;2023-11-19T13:13:56;16.00;79.10
7254;DHT22;4060;49.186;9.226;2023-11-19T13:16:27;16.00;78.40
7254;DHT22;4060;49.186;9.226;2023-11-19T13:18:56;16.00;78.30
7254;DHT22;4060;49.186;9.226;2023-11-19T13:21:27;16.00;78.20
7254;DHT22;4060;49.186;9.226;2023-11-19T13:23:57;16.00;78.20
7254;DHT22;4060;49.186;9.226;2023-11-19T13:26:29;16.00;78.10
7254;DHT22;4060;49.186;9.226;2023-11-19T13:28:59;16.00;78.10
7254;DHT22;4060;49.186;9.226;2023-11-19T13:31:29;16.10;78.00
7254;DHT22;4060;49.186;9.226;2023-11-19T13:33:58;16.10;77.70
7254;DHT22;4060;49.186;9.226;2023-11-19T13:36:28;16.10;77.30
7254;DHT22;4060;49.186;9.226;2023-11-19T13:38:58;16.10;77.00
7254;DHT22;4060;49.186;9.226;2023-11-19T13:41:30;16.10;76.90
7254;DHT22;4060;49.186;9.226;2023-11-19T13:43:59;16.20;76.70
7254;DHT22;4060;49.186;9.226;2023-11-19T13:46:28;16.20;76.60
7254;DHT22;4060;49.186;9.226;2023-11-19T13:48:58;16.20;76.60
7254;DHT22;4060;49.186;9.226;2023-11-19T13:51:27;16.20;76.70
7254;DHT22;4060;49.186;9.226;2023-11-19T13:53:56;16.20;76.70
7254;DHT22;4060;49.186;9.226;2023-11-19T13:56:28;16.20;76.80
7254;DHT22;4060;49.186;9.226;2023-11-19T13:58:57;16.20;76.70
7254;DHT22;4060;49.186;9.226;2023-11-19T14:01:27;16.20;76.70
7254;DHT22;4060;49.186;9.226;2023-11-19T14:03:56;16.10;76.50
7254;DHT22;4060;49.186;9.226;2023-11-19T14:06:25;16.20;76.20
7254;DHT22;4060;49.186;9.226;2023-11-19T14:08:55;16.10;76.00
7254;DHT22;4060;49.186;9.226;2023-11-19T14:11:24;16.10;75.60
7254;DHT22;4060;49.186;9.226;2023-11-19T14:13:55;16.10;75.50
7254;DHT22;4060;49.186;9.226;2023-11-19T14:16:27;16.20;75.70
7254;DHT22;4060;49.186;9.226;2023-11-19T14:18:56;16.20;75.50
7254;DHT22;4060;49.186;9.226;2023-11-19T14:21:25;16.20;75.30
7254;DHT22;4060;49.186;9.226;2023-11-19T14:23:55;16.20;75.30
7254;DHT22;4060;49.186;9.226;2023-11-19T14:26:24;16.20;75.30
7254;DHT22;4060;49.186;9.226;2023-11-19T14:28:56;16.20;75.30
7254;DHT22;4060;49.186;9.226;2023-11-19T14:31:29;16.20;75.10
7254;DHT22;4060;49.186;9.226;2023-11-19T14:33:59;16.20;74.90
7254;DHT22;4060;49.186;9.226;2023-11-19T14:36:29;16.20;74.90
7254;DHT22;4060;49.186;9.226;2023-11-19T14:38:58;16.10;75.00
7254;DHT22;4060;49.186;9.226;2023-11-19T14:41:27;16.10;75.20
7254;DHT22;4060;49.186;9.226;2023-11-19T14:43:59;16.10;75.40
7254;DHT22;4060;49.186;9.226;2023-11-19T14:46:28;16.20;75.80
7254;DHT22;4060;49.186;9.226;2023-11-19T14:48:57;16.10;75.80
7254;DHT22;4060;49.186;9.226;2023-11-19T14:51:27;16.10;76.00
7254;DHT22;4060;49.186;9.226;2023-11-19T14:53:57;16.10;76.10
7254;DHT22;4060;49.186;9.226;2023-11-19T14:56:27;16.10;77.00
7254;DHT22;4060;49.186;9.226;2023-11-19T14:58:58;16.10;76.20
7254;DHT22;4060;49.186;9.226;2023-11-19T15:01:27;16.10;76.20
7254;DHT22;4060;49.186;9.226;2023-11-19T15:03:57;16.10;76.20
7254;DHT22;4060;49.186;9.226;2023-11-19T15:06:27;16.10;76.30
7254;DHT22;4060;49.186;9.226;2023-11-19T15:08:57;16.00;76.00
7254;DHT22;4060;49.186;9.226;2023-11-19T15:11:27;16.00;75.40
7254;DHT22;4060;49.186;9.226;2023-11-19T15:13:58;16.00;75.20
7254;DHT22;4060;49.186;9.226;2023-11-19T15:16:27;16.00;74.80
7254;DHT22;4060;49.186;9.226;2023-11-19T15:19:01;16.00;74.80
7254;DHT22;4060;49.186;9.226;2023-11-19T15:21:31;16.00;74.60
7254;DHT22;4060;49.186;9.226;2023-11-19T15:24:00;16.00;74.50
7254;DHT22;4060;49.186;9.226;2023-11-19T15:26:31;16.00;74.30
7254;DHT22;4060;49.186;9.226;2023-11-19T15:29:02;16.00;74.30
7254;DHT22;4060;49.186;9.226;2023-11-19T15:31:32;16.00;74.10
7254;DHT22;4060;49.186;9.226;2023-11-19T15:34:02;15.90;73.90
7254;DHT22;4060;49.186;9.226;2023-11-19T15:36:31;15.90;73.90
7254;DHT22;4060;49.186;9.226;2023-11-19T15:39:03;16.00;73.90
7254;DHT22;4060;49.186;9.226;2023-11-19T15:41:33;15.90;73.80
7254;DHT22;4060;49.186;9.226;2023-11-19T15:44:04;15.90;73.60
7254;DHT22;4060;49.186;9.226;2023-11-19T15:46:34;15.90;73.50
7254;DHT22;4060;49.186;9.226;2023-11-19T15:49:04;15.90;73.40
7254;DHT22;4060;49.186;9.226;2023-11-19T15:51:34;15.90;73.20
7254;DHT22;4060;49.186;9.226;2023-11-19T15:54:03;15.90;73.20
7254;DHT22;4060;49.186;9.226;2023-11-19T15:56:34;15.90;73.20
7254;DHT22;4060;49.186;9.226;2023-11-19T15:59:06;15.90;73.20
7254;DHT22;4060;49.186;9.226;2023-11-19T16:01:35;15.90;73.10
7254;DHT22;4060;49.186;9.226;2023-11-19T16:04:06;15.80;73.10
7254;DHT22;4060;49.186;9.226;2023-11-19T16:06:36;15.80;73.10
7254;DHT22;4060;49.186;9.226;2023-11-19T16:09:06;15.90;73.20
7254;DHT22;4060;49.186;9.226;2023-11-19T16:11:36;15.90;73.30
7254;DHT22;4060;49.186;9.226;2023-11-19T16:14:22;15.80;73.20
7254;DHT22;4060;49.186;9.226;2023-11-19T16:16:52;15.80;73.20
7254;DHT22;4060;49.186;9.226;2023-11-19T16:19:21;15.80;73.20
7254;DHT22;4060;49.186;9.226;2023-11-19T16:21:51;15.80;73.00
7254;DHT22;4060;49.186;9.226;2023-11-19T16:24:20;15.80;73.00
7254;DHT22;4060;49.186;9.226;2023-11-19T16:26:50;15.80;73.10
7254;DHT22;4060;49.186;9.226;2023-11-19T16:29:21;15.80;73.20
7254;DHT22;4060;49.186;9.226;2023-11-19T16:31:51;15.80;73.30